createdAt,value
2022-11-05T00:00:36.057Z,0.90
2022-11-05T00:03:21.296Z,0.82
2022-11-05T00:06:10.656Z,0.68
2022-11-05T00:08:56.121Z,0.80
2022-11-05T00:11:42.748Z,0.77
2022-11-05T00:14:27.852Z,0.75
2022-11-05T00:16:54.446Z,0.90
2022-11-05T00:19:20.989Z,0.93
2022-11-05T00:22:06.166Z,0.60
2022-11-05T00:24:51.087Z,1.13
2022-11-05T00:27:17.666Z,1.20
2022-11-05T00:29:44.244Z,0.95
2022-11-05T00:32:10.838Z,1.13
2022-11-05T00:34:39.486Z,1.10
2022-11-05T00:37:06.043Z,0.90
2022-11-05T00:39:32.628Z,0.93
2022-11-05T00:42:17.953Z,1.10
2022-11-05T00:45:00.839Z,0.98
2022-11-05T00:47:46.169Z,1.13
2022-11-05T00:50:13.466Z,0.95
2022-11-05T00:52:58.698Z,1.23
2022-11-05T00:55:34.742Z,0.95
2022-11-05T00:58:03.111Z,1.05
2022-11-05T01:00:31.963Z,1.00
2022-11-05T01:03:04.850Z,1.00
2022-11-05T01:05:33.009Z,1.00
2022-11-05T01:08:01.682Z,1.08
2022-11-05T01:10:29.705Z,0.98
2022-11-05T01:12:56.804Z,0.88
2022-11-05T01:15:23.572Z,0.85
2022-11-05T01:17:54.599Z,0.50
2022-11-05T01:20:21.246Z,1.00
2022-11-05T01:22:47.842Z,0.90
2022-11-05T01:25:14.635Z,0.93
2022-11-05T01:27:41.220Z,0.90
2022-11-05T01:30:09.165Z,0.80
2022-11-05T01:32:37.264Z,0.65
2022-11-05T01:35:06.282Z,0.88
2022-11-05T01:37:34.161Z,0.68
2022-11-05T01:40:00.953Z,0.90
2022-11-05T01:42:28.690Z,0.95
2022-11-05T01:44:59.406Z,0.88
2022-11-05T01:47:30.482Z,1.03
2022-11-05T01:50:00.676Z,1.00
2022-11-05T01:52:32.074Z,1.15
2022-11-05T01:54:59.113Z,1.40
2022-11-05T01:57:26.640Z,1.10
2022-11-05T01:59:58.603Z,0.80
2022-11-05T02:02:26.053Z,1.05
2022-11-05T02:04:57.575Z,1.40
2022-11-05T02:07:26.988Z,1.23
2022-11-05T02:09:56.994Z,1.02
2022-11-05T02:12:24.087Z,1.15
2022-11-05T02:14:50.660Z,1.10
2022-11-05T02:17:51.284Z,1.10
2022-11-05T02:20:29.776Z,1.10
2022-11-05T02:23:17.352Z,1.20
2022-11-05T02:26:02.557Z,1.08
2022-11-05T02:29:13.659Z,0.90
2022-11-05T02:32:08.387Z,1.00
2022-11-05T02:35:05.435Z,1.15
2022-11-05T02:37:44.071Z,1.10
2022-11-05T02:40:13.627Z,0.95
2022-11-05T02:42:56.004Z,1.10
2022-11-05T02:45:25.173Z,1.25
2022-11-05T02:48:02.554Z,1.27
2022-11-05T02:50:38.589Z,1.30
2022-11-05T02:53:14.845Z,1.20
2022-11-05T02:55:54.554Z,1.00
2022-11-05T02:58:21.689Z,1.10
2022-11-05T03:00:52.691Z,1.70
2022-11-05T03:03:22.341Z,1.13
2022-11-05T03:06:00.623Z,1.08
2022-11-05T03:08:49.284Z,1.23
2022-11-05T03:11:18.655Z,1.33
2022-11-05T03:14:03.205Z,1.20
2022-11-05T03:16:43.016Z,1.33
2022-11-05T03:19:40.046Z,1.08
2022-11-05T03:22:20.882Z,0.98
2022-11-05T03:24:53.181Z,1.23
2022-11-05T03:27:31.743Z,0.98
2022-11-05T03:30:06.629Z,1.13
2022-11-05T03:32:36.399Z,1.60
2022-11-05T03:35:10.513Z,1.40
2022-11-05T03:37:41.673Z,1.17
2022-11-05T03:40:12.163Z,1.17
2022-11-05T03:42:44.304Z,1.50
2022-11-05T03:45:16.734Z,1.55
2022-11-05T03:47:46.072Z,1.20
2022-11-05T03:50:18.340Z,1.30
2022-11-05T03:52:53.505Z,1.80
2022-11-05T03:55:24.659Z,1.40
2022-11-05T03:57:55.214Z,1.63
2022-11-05T04:00:23.551Z,1.35
2022-11-05T04:02:50.654Z,1.65
2022-11-05T04:05:17.441Z,1.20
2022-11-05T04:08:03.361Z,1.48
2022-11-05T04:10:48.739Z,1.55
2022-11-05T04:13:24.254Z,1.38
2022-11-05T04:16:13.421Z,1.52
2022-11-05T04:18:40.575Z,1.25
2022-11-05T04:21:27.362Z,1.60
2022-11-05T04:24:09.658Z,1.70
2022-11-05T04:26:38.956Z,1.30
2022-11-05T04:29:24.326Z,1.45
2022-11-05T04:31:50.962Z,1.33
2022-11-05T04:34:18.933Z,1.92
2022-11-05T04:36:49.774Z,2.00
2022-11-05T04:39:20.631Z,2.10
2022-11-05T04:41:50.574Z,1.90
2022-11-05T04:44:17.299Z,2.65
2022-11-05T04:46:43.973Z,1.80
2022-11-05T04:49:10.622Z,1.85
2022-11-05T04:51:37.193Z,1.83
2022-11-05T04:54:03.934Z,1.60
2022-11-05T04:56:30.517Z,2.03
2022-11-05T04:58:57.082Z,2.13
2022-11-05T05:01:25.415Z,1.88
2022-11-05T05:03:53.067Z,2.25
2022-11-05T05:06:20.446Z,1.77
2022-11-05T05:08:48.118Z,1.50
2022-11-05T05:11:16.910Z,1.90
2022-11-05T05:13:43.537Z,1.73
2022-11-05T05:16:23.077Z,1.80
2022-11-05T05:18:50.563Z,2.20
2022-11-05T05:21:37.453Z,1.80
2022-11-05T05:24:18.687Z,1.60
2022-11-05T05:26:50.474Z,1.58
2022-11-05T05:29:18.369Z,1.30
2022-11-05T05:31:45.505Z,1.77
2022-11-05T05:34:13.489Z,1.80
2022-11-05T05:36:40.118Z,2.00
2022-11-05T05:39:07.767Z,1.80
2022-11-05T05:41:34.416Z,2.35
2022-11-05T05:44:01.017Z,2.17
2022-11-05T05:46:27.584Z,1.95
2022-11-05T05:48:54.208Z,2.47
2022-11-05T05:51:20.796Z,1.98
2022-11-05T05:53:47.347Z,2.28
2022-11-05T05:56:19.316Z,2.13
2022-11-05T05:58:47.067Z,2.63
2022-11-05T06:01:19.348Z,2.55
2022-11-05T06:03:49.879Z,2.55
2022-11-05T06:06:21.217Z,2.55
2022-11-05T06:08:48.284Z,2.70
2022-11-05T06:11:14.883Z,2.28
2022-11-05T06:13:41.457Z,3.33
2022-11-05T06:16:09.394Z,2.80
2022-11-05T06:18:36.677Z,2.75
2022-11-05T06:21:08.973Z,2.55
2022-11-05T06:23:40.269Z,2.70
2022-11-05T06:26:15.404Z,2.42
2022-11-05T06:28:42.197Z,2.55
2022-11-05T06:31:09.829Z,2.60
2022-11-05T06:33:36.865Z,2.42
2022-11-05T06:36:04.846Z,2.67
2022-11-05T06:38:33.773Z,2.80
2022-11-05T06:41:05.754Z,2.67
2022-11-05T06:43:35.897Z,2.45
2022-11-05T06:46:03.501Z,2.70
2022-11-05T06:48:33.048Z,2.35
2022-11-05T06:50:59.661Z,2.72
2022-11-05T06:53:26.552Z,3.08
2022-11-05T06:55:53.219Z,2.65
2022-11-05T06:58:22.935Z,3.10
2022-11-05T07:00:49.903Z,2.60
2022-11-05T07:03:16.636Z,2.90
2022-11-05T07:05:47.928Z,2.63
2022-11-05T07:08:15.539Z,2.53
2022-11-05T07:10:42.218Z,3.00
2022-11-05T07:13:09.207Z,2.28
2022-11-05T07:15:36.914Z,2.50
2022-11-05T07:18:04.211Z,3.00
2022-11-05T07:20:34.234Z,2.58
2022-11-05T07:23:13.502Z,2.88
2022-11-05T07:25:41.823Z,3.22
2022-11-05T07:28:09.399Z,2.40
2022-11-05T07:30:36.808Z,2.03
2022-11-05T07:33:03.973Z,1.85
2022-11-05T07:35:30.670Z,1.65
2022-11-05T07:37:57.440Z,1.92
2022-11-05T07:40:26.676Z,1.80
2022-11-05T07:42:58.920Z,2.10
2022-11-05T07:45:27.238Z,1.63
2022-11-05T07:47:56.503Z,1.85
2022-11-05T07:50:26.245Z,2.20
2022-11-05T07:52:53.149Z,1.55
2022-11-05T07:55:20.525Z,1.40
2022-11-05T07:57:49.454Z,1.23
2022-11-05T08:00:22.757Z,1.17
2022-11-05T08:03:17.351Z,1.30
2022-11-05T08:05:47.612Z,1.17
2022-11-05T08:08:17.768Z,1.10
2022-11-05T08:10:44.707Z,1.10
2022-11-05T08:13:12.944Z,1.40
2022-11-05T08:15:40.344Z,1.50
2022-11-05T08:18:10.755Z,1.00
2022-11-05T08:20:39.298Z,1.20
2022-11-05T08:23:05.941Z,1.42
2022-11-05T08:25:32.687Z,1.42
2022-11-05T08:28:05.518Z,1.35
2022-11-05T08:30:32.621Z,1.42
2022-11-05T08:33:05.573Z,1.05
2022-11-05T08:35:35.042Z,1.60
2022-11-05T08:38:03.289Z,1.45
2022-11-05T08:40:32.030Z,1.50
2022-11-05T08:43:03.425Z,1.20
2022-11-05T08:45:30.981Z,1.30
2022-11-05T08:48:00.936Z,1.13
2022-11-05T08:50:32.493Z,1.25
2022-11-05T08:52:59.641Z,1.48
2022-11-05T08:55:26.768Z,1.63
2022-11-05T08:58:01.210Z,1.15
2022-11-05T09:00:29.988Z,1.23
2022-11-05T09:03:00.606Z,1.45
2022-11-05T09:05:27.909Z,1.23
2022-11-05T09:08:00.515Z,1.60
2022-11-05T09:10:31.009Z,1.35
2022-11-05T09:12:57.556Z,1.60
2022-11-05T09:15:24.648Z,1.27
2022-11-05T09:17:51.479Z,1.33
2022-11-05T09:20:18.718Z,1.00
2022-11-05T09:22:46.672Z,1.27
2022-11-05T09:25:15.171Z,1.45
2022-11-05T09:27:42.288Z,1.77
2022-11-05T09:30:10.578Z,1.40
2022-11-05T09:32:37.196Z,1.40
2022-11-05T09:35:04.929Z,1.17
2022-11-05T09:37:31.725Z,1.05
2022-11-05T09:39:58.360Z,1.30
2022-11-05T09:42:32.623Z,0.90
2022-11-05T09:45:07.617Z,1.02
2022-11-05T09:47:42.934Z,1.05
2022-11-05T09:50:16.185Z,0.65
2022-11-05T09:52:43.023Z,1.00
2022-11-05T09:55:35.832Z,0.93
2022-11-05T09:58:17.272Z,1.00
2022-11-05T10:00:48.623Z,1.00
2022-11-05T10:03:20.511Z,1.17
2022-11-05T10:05:49.477Z,0.80
2022-11-05T10:08:31.583Z,0.88
2022-11-05T10:11:13.530Z,1.00
2022-11-05T10:13:50.553Z,1.00
2022-11-05T10:16:41.285Z,1.08
2022-11-05T10:19:13.754Z,1.00
2022-11-05T10:24:28.410Z,0.65
2022-11-05T10:26:56.144Z,0.75
2022-11-05T10:29:25.348Z,0.52
2022-11-05T10:31:54.379Z,0.75
2022-11-05T10:34:24.008Z,0.65
2022-11-05T10:36:50.576Z,0.95
2022-11-05T10:39:19.664Z,0.68
2022-11-05T10:42:25.009Z,0.80
2022-11-05T10:45:18.420Z,0.82
2022-11-05T10:47:44.950Z,0.80
2022-11-05T10:50:25.222Z,0.70
2022-11-05T10:52:51.778Z,0.50
2022-11-05T10:55:23.529Z,0.70
2022-11-05T10:57:50.393Z,0.60
2022-11-05T11:00:16.929Z,0.80
2022-11-05T11:02:47.284Z,0.88
2022-11-05T11:05:24.856Z,1.10
2022-11-05T11:07:56.270Z,1.05
2022-11-05T11:10:23.644Z,0.93
2022-11-05T11:12:51.472Z,0.70
2022-11-05T11:15:20.840Z,0.70
2022-11-05T11:17:47.864Z,0.80
2022-11-05T11:20:22.864Z,0.90
2022-11-05T11:23:02.540Z,0.88
2022-11-05T11:26:00.664Z,0.60
2022-11-05T11:28:33.516Z,0.50
2022-11-05T11:31:12.539Z,0.30
2022-11-05T11:33:42.680Z,0.40
2022-11-05T11:36:10.780Z,0.43
2022-11-05T11:38:38.927Z,0.40
2022-11-05T11:41:11.618Z,0.50
2022-11-05T11:43:41.259Z,0.50
2022-11-05T11:46:18.075Z,0.50
2022-11-05T11:48:50.278Z,0.35
2022-11-05T11:51:49.504Z,0.43
2022-11-05T11:54:28.599Z,0.30
2022-11-05T11:56:55.877Z,0.40
2022-11-05T11:59:46.724Z,0.40
2022-11-05T12:02:39.649Z,0.25
2022-11-05T12:05:09.258Z,0.40
2022-11-05T12:07:48.036Z,0.20
2022-11-05T12:10:42.736Z,0.28
2022-11-05T12:13:18.565Z,0.20
2022-11-05T12:16:13.072Z,0.30
2022-11-05T12:18:59.904Z,0.30
2022-11-05T12:21:57.755Z,1.30
2022-11-05T12:24:42.039Z,0.70
2022-11-05T12:27:15.935Z,0.30
2022-11-05T12:29:54.006Z,0.28
2022-11-05T12:32:40.842Z,0.10
2022-11-05T12:35:57.967Z,0.22
2022-11-05T12:38:55.573Z,0.25
2022-11-05T12:41:25.649Z,0.75
2022-11-05T12:44:01.938Z,0.20
2022-11-05T12:46:30.194Z,0.15
2022-11-05T12:48:59.444Z,0.30
2022-11-05T12:51:28.957Z,0.20
2022-11-05T12:53:58.346Z,0.10
2022-11-05T12:56:43.337Z,0.40
2022-11-05T12:59:18.303Z,0.20
2022-11-05T13:01:55.180Z,0.30
2022-11-05T13:04:49.365Z,0.50
2022-11-05T13:07:20.300Z,1.23
2022-11-05T13:09:54.180Z,0.50
2022-11-05T13:12:24.957Z,1.08
2022-11-05T13:15:02.774Z,1.13
2022-11-05T13:18:04.489Z,0.50
2022-11-05T13:20:39.830Z,5.50
2022-11-05T13:23:34.208Z,1.92
2022-11-05T13:26:26.729Z,0.70
2022-11-05T13:29:03.530Z,6.43
2022-11-05T13:31:38.898Z,3.25
2022-11-05T13:34:11.161Z,0.80
2022-11-05T13:37:23.268Z,1.75
2022-11-05T13:40:06.448Z,0.98
2022-11-05T13:42:54.739Z,0.70
2022-11-05T13:45:27.367Z,0.40
2022-11-05T13:48:20.302Z,0.68
2022-11-05T13:51:08.082Z,0.50
2022-11-05T13:53:39.563Z,0.60
2022-11-05T13:56:38.116Z,1.83
2022-11-05T13:59:23.068Z,1.10
2022-11-05T14:01:59.811Z,1.02
2022-11-05T14:05:01.560Z,1.05
2022-11-05T14:07:32.278Z,0.98
2022-11-05T14:10:14.330Z,1.08
2022-11-05T14:12:46.128Z,1.00
2022-11-05T14:15:15.738Z,1.05
2022-11-05T14:17:59.391Z,1.30
2022-11-05T14:20:43.736Z,1.10
2022-11-05T14:23:19.361Z,1.10
2022-11-05T14:25:45.851Z,1.40
2022-11-05T14:28:39.278Z,1.25
2022-11-05T14:31:18.222Z,1.15
2022-11-05T14:34:14.176Z,1.80
2022-11-05T14:36:43.371Z,1.70
2022-11-05T14:39:16.031Z,1.45
2022-11-05T14:42:11.872Z,1.67
2022-11-05T14:44:55.429Z,1.48
2022-11-05T14:47:24.456Z,1.70
2022-11-05T14:49:56.678Z,1.85
2022-11-05T14:52:24.052Z,1.98
2022-11-05T14:54:54.120Z,1.60
2022-11-05T14:57:42.488Z,1.75
2022-11-05T15:00:40.695Z,1.60
2022-11-05T15:03:45.994Z,1.50
2022-11-05T15:06:25.407Z,1.17
2022-11-05T15:09:03.826Z,1.77
2022-11-05T15:11:37.239Z,2.60
2022-11-05T15:14:32.980Z,3.78
2022-11-05T15:17:20.771Z,10.13
2022-11-05T15:19:48.216Z,9.02
2022-11-05T15:22:37.621Z,3.67
2022-11-05T15:25:05.699Z,5.93
2022-11-05T15:27:54.964Z,5.07
2022-11-05T15:30:23.548Z,15.30
2022-11-05T15:32:50.831Z,13.60
2022-11-05T15:35:23.460Z,12.48
2022-11-05T15:37:55.890Z,16.95
2022-11-05T15:40:28.879Z,9.45
2022-11-05T15:43:17.289Z,15.93
2022-11-05T15:45:58.245Z,8.27
2022-11-05T15:48:24.953Z,15.18
2022-11-05T15:50:51.795Z,9.77
2022-11-05T15:54:08.318Z,12.55
2022-11-05T15:56:35.891Z,6.43
2022-11-05T15:59:18.349Z,4.65
2022-11-05T16:01:50.090Z,12.82
2022-11-05T16:04:42.613Z,6.50
2022-11-05T16:07:11.646Z,9.07
2022-11-05T16:09:49.804Z,16.88
2022-11-05T16:12:19.570Z,6.07
2022-11-05T16:15:08.370Z,2.88
2022-11-05T16:17:37.675Z,2.13
2022-11-05T16:20:23.291Z,2.15
2022-11-05T16:22:53.008Z,1.45
2022-11-05T16:25:24.206Z,1.27
2022-11-05T16:27:50.904Z,1.95
2022-11-05T16:30:19.413Z,1.60
2022-11-05T16:32:46.738Z,1.58
2022-11-05T16:35:25.157Z,1.38
2022-11-05T16:37:52.691Z,1.63
2022-11-05T16:40:25.483Z,1.92
2022-11-05T16:42:55.284Z,1.60
2022-11-05T16:45:24.664Z,1.80
2022-11-05T16:47:52.074Z,1.50
2022-11-05T16:50:25.883Z,1.30
2022-11-05T16:52:52.904Z,1.52
2022-11-05T16:55:20.244Z,1.50
2022-11-05T16:57:50.912Z,2.00
2022-11-05T17:00:22.094Z,1.60
2022-11-05T17:02:48.899Z,1.17
2022-11-05T17:05:20.267Z,1.08
2022-11-05T17:07:47.059Z,0.88
2022-11-05T17:10:13.705Z,1.30
2022-11-05T17:12:41.473Z,1.38
2022-11-05T17:15:29.493Z,0.82
2022-11-05T17:17:56.692Z,1.55
2022-11-05T17:20:26.463Z,1.30
2022-11-05T17:22:53.910Z,1.90
2022-11-05T17:25:20.472Z,2.60
2022-11-05T17:27:47.034Z,2.53
2022-11-05T17:30:13.789Z,2.08
2022-11-05T17:32:40.461Z,2.17
2022-11-05T17:35:08.356Z,3.58
2022-11-05T17:37:34.930Z,8.15
2022-11-05T17:40:02.223Z,7.88
2022-11-05T17:42:28.833Z,6.07
2022-11-05T17:44:55.895Z,4.55
2022-11-05T17:47:22.654Z,3.60
2022-11-05T17:49:49.208Z,3.33
2022-11-05T17:52:15.810Z,3.33
2022-11-05T17:54:42.378Z,2.60
2022-11-05T17:57:09.035Z,4.05
2022-11-05T17:59:35.682Z,3.35
2022-11-05T18:02:02.382Z,2.83
2022-11-05T18:04:29.068Z,2.00
2022-11-05T18:06:55.690Z,2.03
2022-11-05T18:09:22.272Z,2.22
2022-11-05T18:11:49.195Z,2.20
2022-11-05T18:14:21.322Z,1.75
2022-11-05T18:16:51.085Z,2.03
2022-11-05T18:19:18.080Z,2.58
2022-11-05T18:21:44.772Z,2.22
2022-11-05T18:24:11.517Z,2.65
2022-11-05T18:26:38.080Z,2.92
2022-11-05T18:29:05.743Z,2.28
2022-11-05T18:31:32.457Z,2.78
2022-11-05T18:34:00.177Z,2.53
2022-11-05T18:36:29.601Z,2.90
2022-11-05T18:39:03.530Z,3.03
2022-11-05T18:41:30.267Z,3.17
2022-11-05T18:44:01.623Z,3.35
2022-11-05T18:46:56.529Z,3.60
2022-11-05T18:49:16.006Z,3.25
2022-11-05T18:51:42.569Z,3.30
2022-11-05T18:54:09.237Z,4.43
2022-11-05T18:56:36.093Z,4.47
2022-11-05T18:59:30.500Z,4.22
2022-11-05T19:01:49.866Z,4.13
2022-11-05T19:04:16.570Z,4.43
2022-11-05T19:06:43.117Z,3.92
2022-11-05T19:09:11.973Z,4.40
2022-11-05T19:11:40.027Z,3.90
2022-11-05T19:14:09.706Z,4.65
2022-11-05T19:16:36.330Z,5.00
2022-11-05T19:19:05.719Z,6.38
2022-11-05T19:21:32.896Z,5.60
2022-11-05T19:24:01.535Z,6.28
2022-11-05T19:26:29.862Z,6.25
2022-11-05T19:29:01.702Z,6.15
2022-11-05T19:31:29.246Z,4.57
2022-11-05T19:33:56.014Z,3.50
2022-11-05T19:36:25.269Z,3.92
2022-11-05T19:39:00.727Z,2.83
2022-11-05T19:41:27.580Z,2.83
2022-11-05T19:43:55.120Z,3.42
2022-11-05T19:46:23.160Z,3.38
2022-11-05T19:48:50.338Z,3.17
2022-11-05T19:51:19.943Z,2.88
2022-11-05T19:53:47.208Z,2.80
2022-11-05T19:56:16.686Z,3.58
2022-11-05T19:58:44.178Z,3.30
2022-11-05T20:01:12.516Z,2.85
2022-11-05T20:03:39.987Z,3.28
2022-11-05T20:06:32.017Z,3.17
2022-11-05T20:12:04.579Z,3.90
2022-11-05T20:14:31.375Z,3.20
2022-11-05T20:16:57.994Z,4.18
2022-11-05T20:19:24.615Z,3.20
2022-11-05T20:21:51.577Z,4.07
2022-11-05T20:24:24.921Z,5.60
2022-11-05T20:26:56.080Z,5.65
2022-11-05T20:29:23.999Z,6.25
2022-11-05T20:31:51.221Z,6.40
2022-11-05T20:34:17.793Z,5.95
2022-11-05T20:36:44.405Z,4.00
2022-11-05T20:39:12.006Z,3.85
2022-11-05T20:41:38.733Z,4.22
2022-11-05T20:44:05.377Z,4.15
2022-11-05T20:46:32.896Z,3.75
2022-11-05T20:48:59.544Z,4.80
2022-11-05T20:51:26.153Z,5.00
2022-11-05T20:53:57.895Z,4.80
2022-11-05T20:58:53.197Z,4.20
2022-11-05T21:01:20.384Z,3.25
2022-11-05T21:03:47.856Z,8.60
2022-11-05T21:06:15.182Z,7.50
2022-11-05T21:08:41.955Z,4.53
2022-11-05T21:11:10.079Z,4.20
2022-11-05T21:13:37.091Z,3.88
2022-11-05T21:16:07.002Z,3.58
2022-11-05T21:18:36.116Z,3.90
2022-11-05T21:21:11.859Z,5.78
2022-11-05T21:23:41.846Z,4.60
2022-11-05T21:26:12.201Z,3.88
2022-11-05T21:28:40.274Z,3.80
2022-11-05T21:31:07.721Z,5.47
2022-11-05T21:33:35.245Z,7.85
2022-11-05T21:36:10.316Z,7.80
2022-11-05T21:38:40.773Z,6.97
2022-11-05T21:41:08.736Z,6.18
2022-11-05T21:43:35.354Z,6.65
2022-11-05T21:46:03.477Z,5.68
2022-11-05T21:48:30.838Z,4.53
2022-11-05T21:51:16.161Z,3.83
2022-11-05T21:54:00.941Z,3.00
2022-11-05T21:56:46.441Z,3.40
2022-11-05T21:59:34.245Z,2.78
2022-11-05T22:02:03.929Z,2.53
2022-11-05T22:04:37.794Z,2.65
2022-11-05T22:07:06.489Z,2.20
2022-11-05T22:09:33.863Z,2.08
2022-11-05T22:12:00.901Z,2.95
2022-11-05T22:14:28.022Z,5.35
2022-11-05T22:16:55.118Z,5.25
2022-11-05T22:19:22.555Z,5.45
2022-11-05T22:21:49.613Z,3.92
2022-11-05T22:24:16.972Z,3.58
2022-11-05T22:26:44.420Z,4.03
2022-11-05T22:29:11.465Z,3.65
2022-11-05T22:31:38.322Z,3.55
2022-11-05T22:34:05.961Z,4.50
2022-11-05T22:36:34.309Z,4.00
2022-11-05T22:39:01.693Z,4.18
2022-11-05T22:41:29.018Z,4.68
2022-11-05T22:43:55.812Z,3.30
2022-11-05T22:46:24.902Z,3.08
2022-11-05T22:48:51.863Z,3.47
2022-11-05T22:51:21.424Z,3.90
2022-11-05T22:53:48.641Z,3.33
2022-11-05T22:56:18.044Z,2.97
2022-11-05T22:58:45.215Z,3.67
2022-11-05T23:01:13.351Z,4.38
2022-11-05T23:03:41.720Z,4.28
2022-11-05T23:06:33.011Z,3.72
2022-11-05T23:09:18.748Z,3.13
2022-11-05T23:11:49.265Z,2.45
2022-11-05T23:14:15.948Z,2.63
2022-11-05T23:17:03.390Z,1.80
2022-11-05T23:19:49.463Z,2.10
2022-11-05T23:22:55.035Z,2.22
2022-11-05T23:25:23.100Z,2.25
2022-11-05T23:27:51.711Z,2.40
2022-11-05T23:30:24.617Z,3.38
2022-11-05T23:32:52.376Z,2.58
2022-11-05T23:35:39.913Z,2.47
2022-11-05T23:38:25.061Z,2.92
2022-11-05T23:41:10.437Z,3.50
2022-11-05T23:43:55.811Z,2.75
2022-11-05T23:46:41.052Z,3.00
2022-11-05T23:49:09.253Z,2.50
2022-11-05T23:51:35.843Z,2.65
2022-11-05T23:54:02.382Z,2.60
2022-11-05T23:56:30.893Z,2.55
2022-11-05T23:58:57.637Z,2.30
